sensor_id;sensor_type;location;lat;lon;timestamp;pressure;altitude;pressure_sealevel;temperature;humidity
79285;BME280;68734;50.452;11.636;2023-11-19T00:01:31;95310.59;;;1.61;100.00
79285;BME280;68734;50.452;11.636;2023-11-19T00:03:57;95313.88;;;1.63;100.00
79285;BME280;68734;50.452;11.636;2023-11-19T00:08:24;95331.06;;;1.67;100.00
79285;BME280;68734;50.452;11.636;2023-11-19T00:10:50;95332.47;;;1.69;100.00
79285;BME280;68734;50.452;11.636;2023-11-19T00:13:16;95323.28;;;1.65;100.00
79285;BME280;68734;50.452;11.636;2023-11-19T00:15:43;95320.63;;;1.65;100.00
79285;BME280;68734;50.452;11.636;2023-11-19T00:18:10;95329.63;;;1.64;100.00
79285;BME280;68734;50.452;11.636;2023-11-19T00:20:35;95323.69;;;1.69;100.00
79285;BME280;68734;50.452;11.636;2023-11-19T00:23:01;95344.75;;;1.70;100.00
79285;BME280;68734;50.452;11.636;2023-11-19T00:25:36;95334.31;;;1.62;100.00
79285;BME280;68734;50.452;11.636;2023-11-19T00:28:04;95326.94;;;1.71;100.00
79285;BME280;68734;50.452;11.636;2023-11-19T00:31:50;95313.78;;;1.83;100.00
79285;BME280;68734;50.452;11.636;2023-11-19T00:34:15;95314.41;;;1.85;100.00
79285;BME280;68734;50.452;11.636;2023-11-19T00:36:41;95305.19;;;1.81;100.00
79285;BME280;68734;50.452;11.636;2023-11-19T00:39:06;95294.91;;;1.84;100.00
79285;BME280;68734;50.452;11.636;2023-11-19T00:41:31;95300.66;;;1.88;100.00
79285;BME280;68734;50.452;11.636;2023-11-19T00:43:59;95306.78;;;1.88;100.00
79285;BME280;68734;50.452;11.636;2023-11-19T00:46:24;95301.44;;;1.95;100.00
79285;BME280;68734;50.452;11.636;2023-11-19T00:48:50;95293.66;;;1.93;100.00
79285;BME280;68734;50.452;11.636;2023-11-19T00:54:03;95310.03;;;1.97;100.00
79285;BME280;68734;50.452;11.636;2023-11-19T00:56:29;95300.59;;;2.01;100.00
79285;BME280;68734;50.452;11.636;2023-11-19T00:58:54;95287.06;;;1.96;100.00
79285;BME280;68734;50.452;11.636;2023-11-19T01:01:21;95289.34;;;1.99;100.00
79285;BME280;68734;50.452;11.636;2023-11-19T01:03:46;95300.59;;;2.01;100.00
79285;BME280;68734;50.452;11.636;2023-11-19T01:06:12;95296.88;;;2.02;100.00
79285;BME280;68734;50.452;11.636;2023-11-19T01:08:39;95292.75;;;2.06;100.00
79285;BME280;68734;50.452;11.636;2023-11-19T01:11:04;95281.69;;;2.09;100.00
79285;BME280;68734;50.452;11.636;2023-11-19T01:13:30;95273.50;;;2.04;100.00
79285;BME280;68734;50.452;11.636;2023-11-19T01:18:17;95261.38;;;2.08;100.00
79285;BME280;68734;50.452;11.636;2023-11-19T01:20:42;95253.63;;;2.07;100.00
79285;BME280;68734;50.452;11.636;2023-11-19T01:23:08;95238.47;;;2.07;100.00
79285;BME280;68734;50.452;11.636;2023-11-19T01:25:33;95240.47;;;2.12;100.00
79285;BME280;68734;50.452;11.636;2023-11-19T01:28:00;95250.31;;;2.11;100.00
79285;BME280;68734;50.452;11.636;2023-11-19T01:30:27;95241.88;;;2.14;100.00
79285;BME280;68734;50.452;11.636;2023-11-19T01:32:53;95224.47;;;2.12;100.00
79285;BME280;68734;50.452;11.636;2023-11-19T01:35:18;95230.41;;;2.14;100.00
79285;BME280;68734;50.452;11.636;2023-11-19T01:37:44;95243.94;;;2.12;100.00
79285;BME280;68734;50.452;11.636;2023-11-19T01:40:10;95233.06;;;2.21;100.00
79285;BME280;68734;50.452;11.636;2023-11-19T01:42:49;95227.97;;;2.12;100.00
79285;BME280;68734;50.452;11.636;2023-11-19T01:45:22;95219.97;;;2.12;100.00
79285;BME280;68734;50.452;11.636;2023-11-19T01:47:52;95209.31;;;2.12;100.00
79285;BME280;68734;50.452;11.636;2023-11-19T01:50:17;95214.03;;;2.10;100.00
79285;BME280;68734;50.452;11.636;2023-11-19T01:52:43;95205.44;;;2.08;100.00
79285;BME280;68734;50.452;11.636;2023-11-19T01:55:11;95212.41;;;2.09;100.00
79285;BME280;68734;50.452;11.636;2023-11-19T01:57:37;95201.56;;;2.11;100.00
79285;BME280;68734;50.452;11.636;2023-11-19T02:00:04;95195.78;;;2.14;100.00
79285;BME280;68734;50.452;11.636;2023-11-19T02:02:29;95180.00;;;2.12;100.00
79285;BME280;68734;50.452;11.636;2023-11-19T02:06:20;95184.63;;;2.24;100.00
79285;BME280;68734;50.452;11.636;2023-11-19T02:08:51;95175.03;;;2.23;100.00
79285;BME280;68734;50.452;11.636;2023-11-19T02:11:17;95161.69;;;2.23;100.00
79285;BME280;68734;50.452;11.636;2023-11-19T02:13:42;95167.63;;;2.25;100.00
79285;BME280;68734;50.452;11.636;2023-11-19T02:16:09;95163.09;;;2.25;100.00
79285;BME280;68734;50.452;11.636;2023-11-19T02:18:39;95161.84;;;2.28;100.00
79285;BME280;68734;50.452;11.636;2023-11-19T02:21:04;95166.75;;;2.31;100.00
79285;BME280;68734;50.452;11.636;2023-11-19T02:23:30;95153.19;;;2.32;100.00
79285;BME280;68734;50.452;11.636;2023-11-19T02:26:16;95156.84;;;2.38;100.00
79285;BME280;68734;50.452;11.636;2023-11-19T02:31:30;95129.44;;;2.31;100.00
79285;BME280;68734;50.452;11.636;2023-11-19T02:33:59;95113.88;;;2.28;100.00
79285;BME280;68734;50.452;11.636;2023-11-19T02:36:25;95123.66;;;2.34;100.00
79285;BME280;68734;50.452;11.636;2023-11-19T02:38:50;95096.41;;;2.32;100.00
79285;BME280;68734;50.452;11.636;2023-11-19T02:41:16;95111.91;;;2.42;100.00
79285;BME280;68734;50.452;11.636;2023-11-19T02:43:43;95101.84;;;2.44;100.00
79285;BME280;68734;50.452;11.636;2023-11-19T02:46:09;95086.66;;;2.44;100.00
79285;BME280;68734;50.452;11.636;2023-11-19T02:48:35;95093.47;;;2.58;100.00
79285;BME280;68734;50.452;11.636;2023-11-19T02:51:04;95080.31;;;2.64;100.00
79285;BME280;68734;50.452;11.636;2023-11-19T02:55:28;95067.03;;;2.75;100.00
79285;BME280;68734;50.452;11.636;2023-11-19T02:57:56;95061.63;;;2.82;100.00
79285;BME280;68734;50.452;11.636;2023-11-19T03:00:24;95048.06;;;2.84;100.00
79285;BME280;68734;50.452;11.636;2023-11-19T03:02:53;95038.94;;;2.91;100.00
79285;BME280;68734;50.452;11.636;2023-11-19T03:05:25;95041.63;;;2.91;100.00
79285;BME280;68734;50.452;11.636;2023-11-19T03:07:51;95038.47;;;2.94;100.00
79285;BME280;68734;50.452;11.636;2023-11-19T03:10:17;95044.66;;;2.95;100.00
79285;BME280;68734;50.452;11.636;2023-11-19T03:12:43;95030.41;;;3.01;100.00
79285;BME280;68734;50.452;11.636;2023-11-19T03:15:09;95023.06;;;2.96;100.00
79285;BME280;68734;50.452;11.636;2023-11-19T03:19:14;95031.38;;;3.07;100.00
79285;BME280;68734;50.452;11.636;2023-11-19T03:21:41;95019.50;;;3.03;100.00
79285;BME280;68734;50.452;11.636;2023-11-19T03:24:07;95026.63;;;3.09;100.00
79285;BME280;68734;50.452;11.636;2023-11-19T03:26:35;95017.41;;;3.05;100.00
79285;BME280;68734;50.452;11.636;2023-11-19T03:29:00;95027.63;;;3.08;100.00
79285;BME280;68734;50.452;11.636;2023-11-19T03:31:26;95023.13;;;3.08;100.00
79285;BME280;68734;50.452;11.636;2023-11-19T03:33:52;95019.78;;;3.13;100.00
79285;BME280;68734;50.452;11.636;2023-11-19T03:36:17;95004.38;;;3.15;100.00
79285;BME280;68734;50.452;11.636;2023-11-19T03:38:42;94988.34;;;3.15;100.00
79285;BME280;68734;50.452;11.636;2023-11-19T03:43:10;95002.88;;;3.19;100.00
79285;BME280;68734;50.452;11.636;2023-11-19T03:45:36;94994.97;;;3.24;100.00
79285;BME280;68734;50.452;11.636;2023-11-19T03:48:01;94998.69;;;3.23;100.00
79285;BME280;68734;50.452;11.636;2023-11-19T03:50:27;95014.72;;;3.23;100.00
79285;BME280;68734;50.452;11.636;2023-11-19T03:52:54;95010.53;;;3.27;100.00
79285;BME280;68734;50.452;11.636;2023-11-19T03:55:20;94992.88;;;3.26;100.00
79285;BME280;68734;50.452;11.636;2023-11-19T03:57:45;94995.69;;;3.31;100.00
79285;BME280;68734;50.452;11.636;2023-11-19T04:00:12;94992.44;;;3.29;100.00
79285;BME280;68734;50.452;11.636;2023-11-19T04:02:40;94997.41;;;3.26;100.00
79285;BME280;68734;50.452;11.636;2023-11-19T04:06:53;94980.13;;;3.28;100.00
79285;BME280;68734;50.452;11.636;2023-11-19T04:09:19;94986.63;;;3.32;100.00
79285;BME280;68734;50.452;11.636;2023-11-19T04:11:47;94969.38;;;3.35;100.00
79285;BME280;68734;50.452;11.636;2023-11-19T04:14:15;94982.03;;;3.39;100.00
79285;BME280;68734;50.452;11.636;2023-11-19T04:16:44;94966.00;;;3.39;100.00
79285;BME280;68734;50.452;11.636;2023-11-19T04:19:10;94976.69;;;3.39;100.00
79285;BME280;68734;50.452;11.636;2023-11-19T04:21:35;94975.03;;;3.38;100.00
79285;BME280;68734;50.452;11.636;2023-11-19T04:24:01;94961.59;;;3.33;100.00
79285;BME280;68734;50.452;11.636;2023-11-19T04:29:21;94993.88;;;3.44;100.00
79285;BME280;68734;50.452;11.636;2023-11-19T04:31:46;94991.31;;;3.49;100.00
79285;BME280;68734;50.452;11.636;2023-11-19T04:34:12;94986.44;;;3.46;100.00
79285;BME280;68734;50.452;11.636;2023-11-19T04:36:37;95005.13;;;3.46;100.00
79285;BME280;68734;50.452;11.636;2023-11-19T04:39:04;94997.69;;;3.48;100.00
79285;BME280;68734;50.452;11.636;2023-11-19T04:41:49;94972.38;;;3.38;100.00
79285;BME280;68734;50.452;11.636;2023-11-19T04:44:15;94978.22;;;3.47;100.00
79285;BME280;68734;50.452;11.636;2023-11-19T04:46:41;94971.44;;;3.45;100.00
79285;BME280;68734;50.452;11.636;2023-11-19T04:51:49;94965.06;;;3.46;100.00
79285;BME280;68734;50.452;11.636;2023-11-19T04:54:16;94955.19;;;3.46;100.00
79285;BME280;68734;50.452;11.636;2023-11-19T04:56:45;94967.41;;;3.54;100.00
79285;BME280;68734;50.452;11.636;2023-11-19T04:59:11;94974.84;;;3.52;100.00
79285;BME280;68734;50.452;11.636;2023-11-19T05:01:36;94957.78;;;3.53;100.00
79285;BME280;68734;50.452;11.636;2023-11-19T05:04:02;94964.16;;;3.52;100.00
79285;BME280;68734;50.452;11.636;2023-11-19T05:06:28;94972.31;;;3.57;100.00
79285;BME280;68734;50.452;11.636;2023-11-19T05:08:59;94969.16;;;3.60;100.00
79285;BME280;68734;50.452;11.636;2023-11-19T05:11:34;94963.59;;;3.62;100.00
79285;BME280;68734;50.452;11.636;2023-11-19T05:15:06;94939.78;;;3.60;100.00
79285;BME280;68734;50.452;11.636;2023-11-19T05:17:33;94940.84;;;3.59;100.00
79285;BME280;68734;50.452;11.636;2023-11-19T05:19:58;94946.28;;;3.64;100.00
79285;BME280;68734;50.452;11.636;2023-11-19T05:22:23;94946.28;;;3.64;100.00
79285;BME280;68734;50.452;11.636;2023-11-19T05:24:49;94942.00;;;3.75;100.00
79285;BME280;68734;50.452;11.636;2023-11-19T05:27:15;94956.41;;;3.74;100.00
79285;BME280;68734;50.452;11.636;2023-11-19T05:29:40;94946.50;;;3.74;100.00
79285;BME280;68734;50.452;11.636;2023-11-19T05:32:07;94937.00;;;3.78;100.00
79285;BME280;68734;50.452;11.636;2023-11-19T05:34:32;94957.91;;;3.82;100.00
79285;BME280;68734;50.452;11.636;2023-11-19T05:38:49;94954.19;;;3.83;100.00
79285;BME280;68734;50.452;11.636;2023-11-19T05:41:15;94936.06;;;3.85;100.00
79285;BME280;68734;50.452;11.636;2023-11-19T05:43:40;94940.38;;;3.86;100.00
79285;BME280;68734;50.452;11.636;2023-11-19T05:46:06;94944.91;;;3.85;100.00
79285;BME280;68734;50.452;11.636;2023-11-19T05:48:32;94945.13;;;3.84;100.00
79285;BME280;68734;50.452;11.636;2023-11-19T05:50:58;94948.25;;;3.80;100.00
79285;BME280;68734;50.452;11.636;2023-11-19T05:53:24;94962.78;;;3.85;100.00
79285;BME280;68734;50.452;11.636;2023-11-19T05:55:49;94959.41;;;3.89;100.00
79285;BME280;68734;50.452;11.636;2023-11-19T06:00:07;94958.13;;;3.92;100.00
79285;BME280;68734;50.452;11.636;2023-11-19T06:02:38;94962.31;;;3.99;100.00
79285;BME280;68734;50.452;11.636;2023-11-19T06:05:04;94953.72;;;3.97;100.00
79285;BME280;68734;50.452;11.636;2023-11-19T06:07:31;94965.34;;;4.03;100.00
79285;BME280;68734;50.452;11.636;2023-11-19T06:09:57;94955.81;;;4.07;100.00
79285;BME280;68734;50.452;11.636;2023-11-19T06:12:22;94956.97;;;4.11;100.00
79285;BME280;68734;50.452;11.636;2023-11-19T06:14:48;94950.09;;;4.15;100.00
79285;BME280;68734;50.452;11.636;2023-11-19T06:17:13;94956.03;;;4.17;100.00
79285;BME280;68734;50.452;11.636;2023-11-19T06:19:41;94973.22;;;4.22;100.00
79285;BME280;68734;50.452;11.636;2023-11-19T06:23:27;94979.72;;;4.26;100.00
79285;BME280;68734;50.452;11.636;2023-11-19T06:25:53;94961.47;;;4.23;100.00
79285;BME280;68734;50.452;11.636;2023-11-19T06:28:18;94965.28;;;4.27;100.00
79285;BME280;68734;50.452;11.636;2023-11-19T06:30:46;94965.28;;;4.27;100.00
79285;BME280;68734;50.452;11.636;2023-11-19T06:33:15;94965.41;;;4.32;100.00
79285;BME280;68734;50.452;11.636;2023-11-19T06:35:40;94971.91;;;4.36;100.00
79285;BME280;68734;50.452;11.636;2023-11-19T06:38:06;94981.53;;;4.37;100.00
79285;BME280;68734;50.452;11.636;2023-11-19T06:40:34;94974.13;;;4.39;100.00
79285;BME280;68734;50.452;11.636;2023-11-19T06:43:00;94963.44;;;4.39;100.00
79285;BME280;68734;50.452;11.636;2023-11-19T06:46:15;94973.41;;;4.44;100.00
79285;BME280;68734;50.452;11.636;2023-11-19T06:48:41;94967.84;;;4.45;100.00
79285;BME280;68734;50.452;11.636;2023-11-19T06:51:09;94976.09;;;4.44;100.00
79285;BME280;68734;50.452;11.636;2023-11-19T06:53:34;94971.66;;;4.49;100.00
79285;BME280;68734;50.452;11.636;2023-11-19T06:56:02;94955.63;;;4.49;100.00
79285;BME280;68734;50.452;11.636;2023-11-19T06:58:32;94964.78;;;4.53;100.00
79285;BME280;68734;50.452;11.636;2023-11-19T07:01:01;94962.56;;;4.50;100.00
79285;BME280;68734;50.452;11.636;2023-11-19T07:03:26;94972.31;;;4.56;100.00
79285;BME280;68734;50.452;11.636;2023-11-19T07:07:40;94980.91;;;4.70;100.00
79285;BME280;68734;50.452;11.636;2023-11-19T07:10:09;94969.97;;;4.72;100.00
79285;BME280;68734;50.452;11.636;2023-11-19T07:12:37;94964.56;;;4.84;100.00
79285;BME280;68734;50.452;11.636;2023-11-19T07:15:04;94969.13;;;4.83;100.00
79285;BME280;68734;50.452;11.636;2023-11-19T07:17:30;94974.22;;;4.85;100.00
79285;BME280;68734;50.452;11.636;2023-11-19T07:19:56;94983.72;;;4.92;100.00
79285;BME280;68734;50.452;11.636;2023-11-19T07:22:24;94961.66;;;4.85;100.00
79285;BME280;68734;50.452;11.636;2023-11-19T07:24:50;94979.31;;;4.86;100.00
79285;BME280;68734;50.452;11.636;2023-11-19T07:30:03;94996.44;;;5.14;100.00
79285;BME280;68734;50.452;11.636;2023-11-19T07:32:29;95007.16;;;5.14;100.00
79285;BME280;68734;50.452;11.636;2023-11-19T07:34:54;95006.09;;;5.15;100.00
79285;BME280;68734;50.452;11.636;2023-11-19T07:37:22;95006.75;;;5.22;100.00
79285;BME280;68734;50.452;11.636;2023-11-19T07:39:47;95013.84;;;5.28;100.00
79285;BME280;68734;50.452;11.636;2023-11-19T07:42:13;95011.00;;;5.35;100.00
79285;BME280;68734;50.452;11.636;2023-11-19T07:44:40;95015.25;;;5.48;100.00
79285;BME280;68734;50.452;11.636;2023-11-19T07:47:07;95021.53;;;5.53;100.00
79285;BME280;68734;50.452;11.636;2023-11-19T07:49:32;95023.94;;;5.55;100.00
79285;BME280;68734;50.452;11.636;2023-11-19T07:52:47;95015.66;;;5.56;100.00
79285;BME280;68734;50.452;11.636;2023-11-19T07:55:12;95034.66;;;5.55;100.00
79285;BME280;68734;50.452;11.636;2023-11-19T07:57:40;95011.50;;;5.49;100.00
79285;BME280;68734;50.452;11.636;2023-11-19T08:00:05;95013.22;;;5.55;100.00
79285;BME280;68734;50.452;11.636;2023-11-19T08:02:32;95005.75;;;5.57;100.00
79285;BME280;68734;50.452;11.636;2023-11-19T08:04:58;95010.97;;;5.64;100.00
79285;BME280;68734;50.452;11.636;2023-11-19T08:07:28;94997.19;;;5.72;100.00
79285;BME280;68734;50.452;11.636;2023-11-19T08:09:53;95006.13;;;5.77;100.00
79285;BME280;68734;50.452;11.636;2023-11-19T08:12:19;95001.47;;;5.90;100.00
79285;BME280;68734;50.452;11.636;2023-11-19T08:17:27;95000.75;;;6.11;100.00
79285;BME280;68734;50.452;11.636;2023-11-19T08:19:53;95005.72;;;6.19;100.00
79285;BME280;68734;50.452;11.636;2023-11-19T08:22:18;95011.13;;;6.25;100.00
79285;BME280;68734;50.452;11.636;2023-11-19T08:24:43;95005.28;;;6.28;100.00
79285;BME280;68734;50.452;11.636;2023-11-19T08:27:11;94999.59;;;6.24;100.00
79285;BME280;68734;50.452;11.636;2023-11-19T08:29:37;94993.91;;;6.21;100.00
79285;BME280;68734;50.452;11.636;2023-11-19T08:32:02;95008.22;;;6.26;100.00
79285;BME280;68734;50.452;11.636;2023-11-19T08:34:29;95004.16;;;6.24;100.00
79285;BME280;68734;50.452;11.636;2023-11-19T08:39:45;95016.91;;;6.16;100.00
79285;BME280;68734;50.452;11.636;2023-11-19T08:42:11;95009.44;;;6.18;100.00
79285;BME280;68734;50.452;11.636;2023-11-19T08:44:37;95009.19;;;6.20;100.00
79285;BME280;68734;50.452;11.636;2023-11-19T08:47:02;95010.16;;;6.31;100.00
79285;BME280;68734;50.452;11.636;2023-11-19T08:49:30;95004.91;;;6.41;100.00
79285;BME280;68734;50.452;11.636;2023-11-19T08:51:56;95004.19;;;6.46;100.00
79285;BME280;68734;50.452;11.636;2023-11-19T08:54:23;95008.28;;;6.53;100.00
79285;BME280;68734;50.452;11.636;2023-11-19T08:56:49;95006.81;;;6.63;100.00
79285;BME280;68734;50.452;11.636;2023-11-19T08:59:15;95006.81;;;6.63;100.00
79285;BME280;68734;50.452;11.636;2023-11-19T09:01:41;94999.97;;;6.72;100.00
79285;BME280;68734;50.452;11.636;2023-11-19T09:06:40;95002.94;;;6.97;100.00
79285;BME280;68734;50.452;11.636;2023-11-19T09:09:06;94988.53;;;7.04;99.88
79285;BME280;68734;50.452;11.636;2023-11-19T09:11:31;94985.44;;;7.17;99.95
79285;BME280;68734;50.452;11.636;2023-11-19T09:13:59;94975.31;;;7.24;98.09
79285;BME280;68734;50.452;11.636;2023-11-19T09:16:24;94979.06;;;7.23;97.54
79285;BME280;68734;50.452;11.636;2023-11-19T09:18:50;94980.06;;;7.17;98.07
79285;BME280;68734;50.452;11.636;2023-11-19T09:21:16;94982.19;;;7.15;97.50
79285;BME280;68734;50.452;11.636;2023-11-19T09:23:41;94976.34;;;7.18;97.46
79285;BME280;68734;50.452;11.636;2023-11-19T09:26:10;94976.91;;;7.25;97.80
79285;BME280;68734;50.452;11.636;2023-11-19T09:28:36;94996.28;;;7.27;97.83
79285;BME280;68734;50.452;11.636;2023-11-19T09:32:44;95003.78;;;7.25;97.58
79285;BME280;68734;50.452;11.636;2023-11-19T09:35:12;95001.16;;;7.30;97.15
79285;BME280;68734;50.452;11.636;2023-11-19T09:37:40;95006.00;;;7.33;97.03
79285;BME280;68734;50.452;11.636;2023-11-19T09:40:06;95001.88;;;7.48;96.99
79285;BME280;68734;50.452;11.636;2023-11-19T09:42:44;95009.41;;;7.51;96.71
79285;BME280;68734;50.452;11.636;2023-11-19T09:45:16;95012.19;;;7.61;96.42
79285;BME280;68734;50.452;11.636;2023-11-19T09:47:46;95011.19;;;7.67;95.52
79285;BME280;68734;50.452;11.636;2023-11-19T09:50:17;95001.72;;;7.92;95.48
79285;BME280;68734;50.452;11.636;2023-11-19T09:52:49;94999.06;;;7.97;94.32
79285;BME280;68734;50.452;11.636;2023-11-19T09:56:44;95001.28;;;8.05;94.32
79285;BME280;68734;50.452;11.636;2023-11-19T09:59:11;95001.03;;;8.07;93.45
79285;BME280;68734;50.452;11.636;2023-11-19T10:01:38;95003.97;;;8.05;93.57
79285;BME280;68734;50.452;11.636;2023-11-19T10:04:05;95006.66;;;8.05;93.73
79285;BME280;68734;50.452;11.636;2023-11-19T10:06:31;95009.88;;;8.07;93.67
79285;BME280;68734;50.452;11.636;2023-11-19T10:08:57;95007.69;;;7.99;94.25
79285;BME280;68734;50.452;11.636;2023-11-19T10:11:25;95022.22;;;7.98;94.04
79285;BME280;68734;50.452;11.636;2023-11-19T10:13:52;95021.69;;;8.01;93.64
79285;BME280;68734;50.452;11.636;2023-11-19T10:16:18;95015.19;;;7.97;93.56
79285;BME280;68734;50.452;11.636;2023-11-19T10:20:12;95035.69;;;8.03;94.05
79285;BME280;68734;50.452;11.636;2023-11-19T10:22:37;95027.59;;;8.03;93.48
79285;BME280;68734;50.452;11.636;2023-11-19T10:25:04;95016.84;;;7.98;94.34
79285;BME280;68734;50.452;11.636;2023-11-19T10:27:30;95020.06;;;8.00;93.84
79285;BME280;68734;50.452;11.636;2023-11-19T10:29:59;95023.81;;;7.99;94.30
79285;BME280;68734;50.452;11.636;2023-11-19T10:32:24;95017.56;;;7.88;94.02
79285;BME280;68734;50.452;11.636;2023-11-19T10:34:50;95013.28;;;7.92;94.84
79285;BME280;68734;50.452;11.636;2023-11-19T10:37:28;95014.09;;;7.93;94.30
79285;BME280;68734;50.452;11.636;2023-11-19T10:39:57;95020.00;;;7.90;95.02
79285;BME280;68734;50.452;11.636;2023-11-19T10:45:02;95004.44;;;7.97;94.51
79285;BME280;68734;50.452;11.636;2023-11-19T10:47:28;94993.97;;;8.01;94.78
79285;BME280;68734;50.452;11.636;2023-11-19T10:49:55;94995.69;;;8.12;94.20
79285;BME280;68734;50.452;11.636;2023-11-19T10:52:23;94980.41;;;8.23;93.08
79285;BME280;68734;50.452;11.636;2023-11-19T10:54:53;94970.47;;;8.23;92.84
79285;BME280;68734;50.452;11.636;2023-11-19T10:57:21;94990.66;;;8.26;92.52
79285;BME280;68734;50.452;11.636;2023-11-19T10:59:47;94979.34;;;8.24;93.25
79285;BME280;68734;50.452;11.636;2023-11-19T11:02:21;94978.78;;;8.22;92.89
79285;BME280;68734;50.452;11.636;2023-11-19T11:04:49;94989.09;;;8.35;93.19
79285;BME280;68734;50.452;11.636;2023-11-19T11:08:37;94981.69;;;8.52;92.30
79285;BME280;68734;50.452;11.636;2023-11-19T11:11:05;94969.63;;;8.60;91.84
79285;BME280;68734;50.452;11.636;2023-11-19T11:13:33;94966.09;;;8.59;91.71
79285;BME280;68734;50.452;11.636;2023-11-19T11:16:03;94968.25;;;8.57;89.72
79285;BME280;68734;50.452;11.636;2023-11-19T11:18:32;94963.41;;;8.54;89.67
79285;BME280;68734;50.452;11.636;2023-11-19T11:21:08;94959.84;;;8.44;90.60
79285;BME280;68734;50.452;11.636;2023-11-19T11:24:00;94955.22;;;8.39;90.05
79285;BME280;68734;50.452;11.636;2023-11-19T11:36:06;94929.41;;;8.38;90.23
79285;BME280;68734;50.452;11.636;2023-11-19T11:38:37;94934.28;;;8.41;91.12
79285;BME280;68734;50.452;11.636;2023-11-19T11:41:23;94919.22;;;8.45;89.90
79285;BME280;68734;50.452;11.636;2023-11-19T11:43:50;94922.16;;;8.44;90.09
79285;BME280;68734;50.452;11.636;2023-11-19T11:49:08;94929.47;;;8.53;89.49
79285;BME280;68734;50.452;11.636;2023-11-19T11:57:06;94946.00;;;8.72;88.95
79285;BME280;68734;50.452;11.636;2023-11-19T11:59:43;94939.28;;;8.85;88.56
79285;BME280;68734;50.452;11.636;2023-11-19T12:02:13;94942.03;;;9.01;85.32
79285;BME280;68734;50.452;11.636;2023-11-19T12:04:40;94940.19;;;9.16;85.06
79285;BME280;68734;50.452;11.636;2023-11-19T12:07:13;94953.16;;;9.35;84.24
79285;BME280;68734;50.452;11.636;2023-11-19T12:09:47;94961.22;;;9.30;81.14
79285;BME280;68734;50.452;11.636;2023-11-19T12:12:23;94967.44;;;9.30;82.17
79285;BME280;68734;50.452;11.636;2023-11-19T12:15:10;94965.59;;;9.46;81.83
79285;BME280;68734;50.452;11.636;2023-11-19T12:20:15;94969.09;;;9.47;80.11
79285;BME280;68734;50.452;11.636;2023-11-19T12:22:43;94950.75;;;9.54;80.43
79285;BME280;68734;50.452;11.636;2023-11-19T12:25:12;94959.91;;;9.43;80.79
79285;BME280;68734;50.452;11.636;2023-11-19T12:27:43;94958.84;;;9.38;79.74
79285;BME280;68734;50.452;11.636;2023-11-19T12:30:11;94957.47;;;9.31;80.51
79285;BME280;68734;50.452;11.636;2023-11-19T12:32:40;94962.59;;;9.32;81.25
79285;BME280;68734;50.452;11.636;2023-11-19T12:35:09;94963.66;;;9.31;80.72
79285;BME280;68734;50.452;11.636;2023-11-19T12:37:45;94962.03;;;9.25;81.12
79285;BME280;68734;50.452;11.636;2023-11-19T12:42:38;94963.13;;;9.24;81.33
79285;BME280;68734;50.452;11.636;2023-11-19T12:45:06;94967.44;;;9.30;81.13
79285;BME280;68734;50.452;11.636;2023-11-19T12:47:33;94965.28;;;9.37;81.20
79285;BME280;68734;50.452;11.636;2023-11-19T12:49:59;94962.63;;;9.53;81.22
79285;BME280;68734;50.452;11.636;2023-11-19T12:52:25;94959.41;;;9.66;80.34
79285;BME280;68734;50.452;11.636;2023-11-19T12:54:50;94956.16;;;9.74;79.26
79285;BME280;68734;50.452;11.636;2023-11-19T12:57:18;94958.84;;;9.79;78.82
79285;BME280;68734;50.452;11.636;2023-11-19T12:59:54;94961.56;;;9.85;78.17
79285;BME280;68734;50.452;11.636;2023-11-19T13:02:21;94962.66;;;9.78;78.86
79285;BME280;68734;50.452;11.636;2023-11-19T13:07:27;94962.09;;;9.87;77.66
79285;BME280;68734;50.452;11.636;2023-11-19T13:10:01;94957.78;;;9.86;77.44
79285;BME280;68734;50.452;11.636;2023-11-19T13:12:27;94955.88;;;9.76;77.29
79285;BME280;68734;50.452;11.636;2023-11-19T13:14:52;94970.19;;;9.71;77.99
79285;BME280;68734;50.452;11.636;2023-11-19T13:17:18;94961.56;;;9.64;77.56
79285;BME280;68734;50.452;11.636;2023-11-19T13:19:47;94970.72;;;9.63;77.95
79285;BME280;68734;50.452;11.636;2023-11-19T13:22:12;94977.19;;;9.57;77.29
79285;BME280;68734;50.452;11.636;2023-11-19T13:24:38;94977.44;;;9.50;78.32
79285;BME280;68734;50.452;11.636;2023-11-19T13:27:05;94980.38;;;9.44;78.89
79285;BME280;68734;50.452;11.636;2023-11-19T13:31:20;94959.84;;;9.17;78.55
79285;BME280;68734;50.452;11.636;2023-11-19T13:33:45;94949.88;;;9.02;78.68
79285;BME280;68734;50.452;11.636;2023-11-19T13:36:11;94951.19;;;8.99;78.48
79285;BME280;68734;50.452;11.636;2023-11-19T13:38:36;94950.91;;;8.96;79.24
79285;BME280;68734;50.452;11.636;2023-11-19T13:41:02;94941.47;;;8.93;79.02
79285;BME280;68734;50.452;11.636;2023-11-19T13:43:33;94958.19;;;8.90;77.75
79285;BME280;68734;50.452;11.636;2023-11-19T13:46:00;94949.56;;;8.88;77.54
79285;BME280;68734;50.452;11.636;2023-11-19T13:48:26;94951.16;;;8.84;77.59
79285;BME280;68734;50.452;11.636;2023-11-19T13:50:57;94955.66;;;8.73;77.19
79285;BME280;68734;50.452;11.636;2023-11-19T13:54:59;94952.13;;;8.63;74.67
79285;BME280;68734;50.452;11.636;2023-11-19T13:57:25;94941.63;;;8.56;74.11
79285;BME280;68734;50.452;11.636;2023-11-19T13:59:50;94929.97;;;8.45;76.42
79285;BME280;68734;50.452;11.636;2023-11-19T14:02:17;94937.97;;;8.35;74.15
79285;BME280;68734;50.452;11.636;2023-11-19T14:04:42;94935.53;;;8.28;75.39
79285;BME280;68734;50.452;11.636;2023-11-19T14:07:08;94944.09;;;8.20;76.47
79285;BME280;68734;50.452;11.636;2023-11-19T14:09:33;94942.09;;;8.05;76.07
79285;BME280;68734;50.452;11.636;2023-11-19T14:11:59;94945.88;;;8.09;75.09
79285;BME280;68734;50.452;11.636;2023-11-19T14:14:24;94945.03;;;8.04;76.27
79285;BME280;68734;50.452;11.636;2023-11-19T14:19:39;94946.88;;;7.93;75.79